Time;durP1;ratioP1;P1;durP2;ratioP2;P2;SDS_P1;SDS_P2;PMS_P1;PMS_P2;Temp;Humidity;BMP_temperature;BMP_pressure;BME280_temperature;BME280_humidity;BME280_pressure;Samples;Min_cycle;Max_cycle;Signal;HPM_P1;HPM_P2
2023/12/12 00:01:22;;;;;;;9.73;4.43;;;7.80;99.90;;;;;;5076564;28;20547;-65
2023/12/12 00:03:51;;;;;;;8.63;3.50;;;7.90;99.90;;;;;;5077076;28;20453;-65
2023/12/12 00:06:19;;;;;;;9.50;3.97;;;7.90;99.90;;;;;;5077846;28;20557;-66
2023/12/12 00:08:46;;;;;;;11.20;5.63;;;7.90;99.90;;;;;;5077868;28;20918;-66
2023/12/12 00:11:13;;;;;;;12.50;3.57;;;7.80;99.90;;;;;;5078821;28;20870;-66
2023/12/12 00:13:41;;;;;;;7.53;3.50;;;7.80;99.90;;;;;;5078270;28;20497;-66
2023/12/12 00:16:10;;;;;;;9.60;4.93;;;7.90;99.90;;;;;;5078296;28;20498;-66
2023/12/12 00:18:37;;;;;;;8.40;4.67;;;7.90;99.90;;;;;;5077991;28;20461;-65
2023/12/12 00:21:06;;;;;;;11.33;4.03;;;7.90;99.90;;;;;;5077996;28;20464;-65
2023/12/12 00:23:33;;;;;;;11.00;4.00;;;7.90;99.90;;;;;;5078156;28;20765;-66
2023/12/12 00:26:01;;;;;;;6.20;3.80;;;7.90;99.90;;;;;;5077453;28;20458;-65
2023/12/12 00:28:28;;;;;;;13.07;4.07;;;7.80;99.90;;;;;;5078007;28;20556;-65
2023/12/12 00:30:55;;;;;;;7.90;3.53;;;7.80;99.90;;;;;;5078275;28;20556;-66
2023/12/12 00:33:22;;;;;;;9.30;4.07;;;7.80;99.90;;;;;;5077779;28;20495;-65
2023/12/12 00:35:50;;;;;;;9.73;3.50;;;7.80;99.90;;;;;;5077964;28;20488;-66
2023/12/12 00:38:18;;;;;;;9.77;3.77;;;7.80;99.90;;;;;;5077465;28;20467;-65
2023/12/12 00:40:53;;;;;;;11.57;3.70;;;7.80;99.90;;;;;;5077860;28;20458;-66
2023/12/12 00:43:20;;;;;;;7.90;3.73;;;7.70;99.90;;;;;;5077903;28;20448;-65
2023/12/12 00:45:48;;;;;;;12.33;3.73;;;7.70;99.90;;;;;;5077829;28;20888;-66
2023/12/12 00:48:15;;;;;;;8.03;3.50;;;7.80;99.90;;;;;;5077718;28;20464;-66
2023/12/12 00:50:42;;;;;;;8.00;3.80;;;7.80;99.90;;;;;;5077772;28;20553;-66
2023/12/12 00:53:09;;;;;;;9.57;3.73;;;7.70;99.90;;;;;;5077928;28;20489;-65
2023/12/12 00:55:38;;;;;;;10.00;4.00;;;7.70;99.90;;;;;;5077648;28;20461;-66
2023/12/12 00:58:06;;;;;;;10.30;4.00;;;7.70;99.90;;;;;;5077606;28;20461;-65
2023/12/12 01:00:33;;;;;;;9.40;3.80;;;7.70;99.90;;;;;;5077306;28;20875;-65
2023/12/12 01:03:00;;;;;;;10.27;5.20;;;7.70;99.90;;;;;;5077504;28;20478;-66
2023/12/12 01:05:27;;;;;;;12.50;5.83;;;7.70;99.90;;;;;;5077546;28;20893;-65
2023/12/12 01:07:55;;;;;;;10.33;5.03;;;7.60;99.90;;;;;;5076906;28;20485;-66
2023/12/12 01:10:22;;;;;;;15.03;5.77;;;7.70;99.90;;;;;;5076847;28;20515;-65
2023/12/12 01:12:51;;;;;;;13.73;7.70;;;7.70;99.90;;;;;;5077235;28;20508;-65
2023/12/12 01:15:18;;;;;;;12.00;5.87;;;7.70;99.90;;;;;;5077341;28;20466;-66
2023/12/12 01:17:46;;;;;;;14.80;4.30;;;7.70;99.90;;;;;;5077610;28;20485;-66
2023/12/12 01:20:13;;;;;;;13.27;6.37;;;7.70;99.90;;;;;;5076763;28;20504;-66
2023/12/12 01:22:40;;;;;;;9.53;4.87;;;7.70;99.90;;;;;;5076449;28;20461;-65
2023/12/12 01:25:09;;;;;;;13.73;4.60;;;7.70;99.90;;;;;;5077203;28;20457;-66
2023/12/12 01:27:36;;;;;;;11.50;4.33;;;7.70;99.90;;;;;;5077077;28;20568;-66
2023/12/12 01:30:06;;;;;;;12.80;5.40;;;7.70;99.90;;;;;;5076612;28;20492;-65
2023/12/12 01:32:33;;;;;;;14.60;5.00;;;7.80;99.90;;;;;;5076893;28;20572;-65
2023/12/12 01:35:00;;;;;;;16.27;4.97;;;7.70;99.90;;;;;;5076892;28;20488;-66
2023/12/12 01:37:27;;;;;;;19.77;5.53;;;7.70;99.90;;;;;;5080746;28;20921;-66
2023/12/12 01:39:54;;;;;;;13.27;4.87;;;7.70;99.90;;;;;;5083923;28;20916;-66
2023/12/12 01:42:21;;;;;;;11.13;5.00;;;7.70;99.90;;;;;;5083653;28;20483;-65
2023/12/12 01:44:48;;;;;;;15.77;5.03;;;7.70;99.90;;;;;;5083865;28;20475;-66
2023/12/12 01:47:18;;;;;;;18.67;5.63;;;7.70;99.90;;;;;;5083371;28;20464;-66
2023/12/12 01:49:45;;;;;;;13.53;4.30;;;7.80;99.90;;;;;;5083715;28;20544;-66
2023/12/12 01:52:14;;;;;;;12.50;4.23;;;7.80;99.90;;;;;;5084101;28;20460;-66
2023/12/12 01:54:48;;;;;;;15.67;4.90;;;7.80;99.90;;;;;;5083500;28;20929;-66
2023/12/12 01:57:19;;;;;;;19.50;5.10;;;7.70;99.90;;;;;;5083420;28;20984;-66
2023/12/12 01:59:47;;;;;;;14.07;4.57;;;7.70;99.90;;;;;;5083570;28;20487;-66
2023/12/12 02:02:18;;;;;;;13.00;4.67;;;7.60;99.90;;;;;;5083449;28;20471;-66
2023/12/12 02:04:47;;;;;;;16.10;5.97;;;7.60;99.90;;;;;;5083622;28;20453;-66
2023/12/12 02:07:15;;;;;;;18.37;4.97;;;7.60;99.90;;;;;;5083382;28;20464;-66
2023/12/12 02:09:43;;;;;;;16.63;4.53;;;7.60;99.90;;;;;;5083624;28;20823;-66
2023/12/12 02:12:10;;;;;;;17.77;5.17;;;7.60;99.90;;;;;;5073751;28;20544;-66
2023/12/12 02:14:38;;;;;;;19.63;5.43;;;7.60;99.90;;;;;;5063375;28;20526;-66
2023/12/12 02:17:05;;;;;;;13.50;5.20;;;7.50;99.90;;;;;;5063370;28;20522;-66
2023/12/12 02:19:34;;;;;;;20.43;5.50;;;7.50;99.90;;;;;;5063375;28;20468;-65
2023/12/12 02:22:03;;;;;;;16.83;5.63;;;7.40;99.90;;;;;;5063621;28;20458;-65
2023/12/12 02:24:30;;;;;;;15.93;5.17;;;7.40;99.90;;;;;;5063770;28;20552;-66
2023/12/12 02:26:57;;;;;;;10.77;4.70;;;7.40;99.90;;;;;;5063007;28;20946;-66
2023/12/12 02:29:24;;;;;;;15.60;4.20;;;7.30;99.90;;;;;;5062776;28;20462;-66
2023/12/12 02:31:52;;;;;;;20.87;6.10;;;7.20;99.90;;;;;;5062910;28;20978;-66
2023/12/12 02:34:19;;;;;;;12.20;4.30;;;7.20;99.90;;;;;;5063433;28;20579;-65
2023/12/12 02:36:46;;;;;;;14.90;4.43;;;7.10;99.90;;;;;;5063289;28;20838;-65
2023/12/12 02:39:15;;;;;;;10.90;4.57;;;7.10;99.90;;;;;;5063255;28;20787;-65
2023/12/12 02:41:42;;;;;;;13.17;4.53;;;7.10;99.90;;;;;;5062989;28;20465;-66
2023/12/12 02:44:10;;;;;;;14.17;5.40;;;7.10;99.90;;;;;;5063005;28;20557;-66
2023/12/12 02:46:39;;;;;;;13.50;4.13;;;7.10;99.90;;;;;;5062408;28;20790;-66
2023/12/12 02:49:06;;;;;;;17.23;5.10;;;7.10;99.90;;;;;;5060742;28;20795;-66
2023/12/12 02:51:34;;;;;;;16.90;4.83;;;7.10;99.90;;;;;;5060193;28;20455;-66
2023/12/12 02:54:01;;;;;;;14.37;5.47;;;7.00;99.90;;;;;;5060155;28;20483;-66
2023/12/12 02:56:33;;;;;;;16.47;5.30;;;7.10;99.90;;;;;;5060113;28;20872;-66
2023/12/12 02:59:01;;;;;;;13.37;5.00;;;7.10;99.90;;;;;;5059862;28;20733;-66
2023/12/12 03:01:28;;;;;;;13.47;5.20;;;7.10;99.90;;;;;;5059394;28;20565;-66
2023/12/12 03:03:55;;;;;;;14.00;5.37;;;7.10;99.90;;;;;;5059695;28;20464;-66
2023/12/12 03:06:22;;;;;;;11.43;5.50;;;7.10;99.90;;;;;;5059687;28;20548;-65
2023/12/12 03:08:50;;;;;;;12.43;4.97;;;7.10;99.90;;;;;;5059265;28;20573;-66
2023/12/12 03:11:17;;;;;;;17.67;4.90;;;7.00;99.90;;;;;;5059376;28;20921;-66
2023/12/12 03:13:45;;;;;;;11.63;4.90;;;7.00;99.90;;;;;;5059327;28;20580;-66
2023/12/12 03:16:13;;;;;;;19.27;5.57;;;7.10;99.90;;;;;;5059501;28;20936;-66
2023/12/12 03:18:40;;;;;;;13.40;5.20;;;7.10;99.90;;;;;;5059425;28;20458;-66
2023/12/12 03:21:07;;;;;;;14.73;5.10;;;7.10;99.90;;;;;;5059223;28;20485;-66
2023/12/12 03:23:34;;;;;;;15.23;5.37;;;7.00;99.90;;;;;;5077256;28;20449;-65
2023/12/12 03:26:07;;;;;;;15.57;6.17;;;7.00;99.90;;;;;;5078404;28;20458;-66
2023/12/12 03:28:35;;;;;;;16.50;6.23;;;7.00;99.90;;;;;;5076496;28;20484;-66
2023/12/12 03:31:04;;;;;;;19.83;5.90;;;7.10;99.90;;;;;;5077878;28;20544;-66
2023/12/12 03:33:31;;;;;;;11.40;4.90;;;7.10;99.90;;;;;;5075278;28;20540;-66
2023/12/12 03:35:58;;;;;;;20.90;5.90;;;7.10;99.90;;;;;;5078552;28;20891;-66
2023/12/12 03:38:26;;;;;;;10.00;5.30;;;7.10;99.90;;;;;;5078698;28;20719;-66
2023/12/12 03:40:53;;;;;;;14.67;5.63;;;7.20;99.90;;;;;;5075885;28;20536;-65
2023/12/12 03:43:20;;;;;;;15.23;4.43;;;7.10;99.90;;;;;;5077958;28;20503;-66
2023/12/12 03:45:47;;;;;;;15.30;5.23;;;7.10;99.90;;;;;;5077593;28;20457;-66
2023/12/12 03:48:16;;;;;;;16.17;5.87;;;7.20;99.90;;;;;;5077631;28;20445;-66
2023/12/12 03:50:43;;;;;;;18.20;6.87;;;7.20;99.90;;;;;;5078479;28;20519;-66
2023/12/12 03:53:10;;;;;;;22.57;6.93;;;7.20;99.90;;;;;;5078098;28;20480;-66
2023/12/12 03:55:38;;;;;;;18.50;5.50;;;7.20;99.90;;;;;;5077942;28;20501;-66
2023/12/12 03:58:05;;;;;;;18.40;5.30;;;7.20;99.90;;;;;;5077779;28;20534;-66
2023/12/12 04:00:32;;;;;;;14.07;5.60;;;7.30;99.90;;;;;;5074737;28;20457;-65
2023/12/12 04:03:00;;;;;;;17.70;5.53;;;7.30;99.90;;;;;;5077635;28;20453;-66
2023/12/12 04:05:28;;;;;;;17.23;5.70;;;7.30;99.90;;;;;;5077838;28;20468;-66
2023/12/12 04:07:55;;;;;;;17.47;5.97;;;7.30;99.90;;;;;;5075273;28;20483;-66
2023/12/12 04:10:23;;;;;;;17.87;5.70;;;7.30;99.90;;;;;;5077732;28;20449;-66
2023/12/12 04:12:50;;;;;;;19.67;5.60;;;7.30;99.90;;;;;;5077773;28;20457;-66
2023/12/12 04:15:17;;;;;;;20.43;5.73;;;7.20;99.90;;;;;;5077580;28;20580;-65
2023/12/12 04:17:44;;;;;;;18.83;6.20;;;7.20;99.90;;;;;;5077256;28;20460;-66
2023/12/12 04:20:12;;;;;;;15.53;5.90;;;7.20;99.90;;;;;;5077304;28;20446;-66
2023/12/12 04:22:41;;;;;;;18.40;5.40;;;7.10;99.90;;;;;;5077418;28;20536;-66
2023/12/12 04:25:09;;;;;;;16.17;6.43;;;7.00;99.90;;;;;;5076807;28;20456;-65
2023/12/12 04:27:36;;;;;;;14.27;5.03;;;6.90;99.90;;;;;;5077291;28;20450;-65
2023/12/12 04:30:04;;;;;;;14.50;5.43;;;6.80;99.90;;;;;;5077482;28;20548;-66
2023/12/12 04:32:31;;;;;;;16.20;5.93;;;6.80;99.90;;;;;;5077100;28;20460;-66
2023/12/12 04:34:59;;;;;;;34.53;8.33;;;6.70;99.90;;;;;;5076924;28;20492;-66
2023/12/12 04:37:26;;;;;;;17.60;6.83;;;6.70;99.90;;;;;;5077332;28;20540;-65
2023/12/12 04:39:55;;;;;;;15.57;5.80;;;6.80;99.90;;;;;;5074314;28;20457;-66
2023/12/12 04:42:23;;;;;;;21.13;6.10;;;6.80;99.90;;;;;;5077156;28;20489;-66
2023/12/12 04:44:50;;;;;;;20.87;6.30;;;6.80;99.90;;;;;;5077166;28;20445;-65
2023/12/12 04:47:17;;;;;;;16.27;6.27;;;6.80;99.90;;;;;;5077105;28;20450;-66
2023/12/12 04:49:44;;;;;;;20.63;7.17;;;6.80;99.90;;;;;;5076742;28;20450;-66
2023/12/12 04:52:12;;;;;;;18.83;6.60;;;6.80;99.90;;;;;;5076836;28;20461;-65
2023/12/12 04:54:39;;;;;;;17.97;6.03;;;6.80;99.90;;;;;;5076366;28;20565;-66
2023/12/12 04:57:07;;;;;;;14.70;5.77;;;6.70;99.90;;;;;;5076951;28;20902;-66
2023/12/12 04:59:35;;;;;;;18.63;6.63;;;6.70;99.90;;;;;;5074467;28;20781;-66
2023/12/12 05:02:02;;;;;;;19.50;8.10;;;6.70;99.90;;;;;;5076829;28;20548;-66
2023/12/12 05:04:29;;;;;;;22.00;6.90;;;6.60;99.90;;;;;;5077074;28;20537;-66
2023/12/12 05:06:57;;;;;;;15.40;6.33;;;6.50;99.90;;;;;;5076299;28;20460;-66
2023/12/12 05:09:24;;;;;;;18.67;6.70;;;6.40;99.90;;;;;;5076395;28;20481;-66
2023/12/12 05:11:51;;;;;;;17.57;6.20;;;6.40;99.90;;;;;;5075398;28;20457;-66
2023/12/12 05:14:20;;;;;;;12.40;6.10;;;6.40;99.90;;;;;;5076712;28;20531;-66
2023/12/12 05:16:47;;;;;;;24.70;7.00;;;6.40;99.90;;;;;;5076706;28;20937;-66
2023/12/12 05:19:15;;;;;;;26.40;7.47;;;6.40;99.90;;;;;;5073815;28;20880;-66
2023/12/12 05:21:42;;;;;;;20.20;6.83;;;6.40;99.90;;;;;;5075696;28;20436;-66
2023/12/12 05:24:09;;;;;;;17.70;5.63;;;6.50;99.90;;;;;;5076646;28;20568;-66
2023/12/12 05:26:36;;;;;;;21.60;7.20;;;6.40;99.90;;;;;;5076549;28;20453;-66
2023/12/12 05:29:04;;;;;;;20.53;6.70;;;6.40;99.90;;;;;;5076306;28;20488;-66
2023/12/12 05:31:32;;;;;;;25.77;6.90;;;6.40;99.90;;;;;;5075818;28;20453;-66
2023/12/12 05:34:00;;;;;;;18.10;6.97;;;6.50;99.90;;;;;;5076178;28;20453;-65
2023/12/12 05:36:27;;;;;;;23.77;6.60;;;6.50;99.90;;;;;;5071950;28;20483;-66
2023/12/12 05:38:54;;;;;;;19.57;7.03;;;6.50;99.90;;;;;;5073945;28;20457;-66
2023/12/12 05:41:21;;;;;;;23.10;7.03;;;6.60;99.90;;;;;;5075398;28;20544;-65
2023/12/12 05:43:49;;;;;;;17.53;6.60;;;6.50;99.90;;;;;;5076473;28;20460;-65
2023/12/12 05:46:16;;;;;;;15.70;5.80;;;6.60;99.90;;;;;;5075928;28;20454;-66
2023/12/12 05:48:44;;;;;;;20.97;5.80;;;6.60;99.90;;;;;;5076126;28;20457;-66
2023/12/12 05:51:12;;;;;;;16.40;5.70;;;6.60;99.90;;;;;;5075904;28;20457;-66
2023/12/12 05:53:39;;;;;;;14.13;5.87;;;6.60;99.90;;;;;;5076753;28;20984;-65
2023/12/12 05:56:07;;;;;;;18.30;6.80;;;6.70;99.90;;;;;;5076091;28;20493;-66
2023/12/12 05:58:34;;;;;;;20.73;6.57;;;6.70;99.90;;;;;;5076681;28;20458;-66
2023/12/12 06:01:02;;;;;;;12.90;6.23;;;6.70;99.90;;;;;;5076362;28;20456;-66
2023/12/12 06:03:31;;;;;;;15.07;5.90;;;6.70;99.90;;;;;;5076250;28;20465;-65
2023/12/12 06:06:02;;;;;;;24.90;10.80;;;6.70;99.90;;;;;;5076568;28;20461;-66
2023/12/12 06:08:30;;;;;;;22.40;7.33;;;6.70;99.90;;;;;;5076168;28;20485;-66
2023/12/12 06:10:58;;;;;;;16.23;6.17;;;6.70;99.90;;;;;;5074622;28;20461;-66
2023/12/12 06:13:26;;;;;;;16.60;6.20;;;6.70;99.90;;;;;;5076239;28;20526;-66
2023/12/12 06:15:53;;;;;;;20.10;6.47;;;6.80;99.90;;;;;;5076458;28;20516;-65
2023/12/12 06:18:20;;;;;;;17.37;6.43;;;6.80;99.90;;;;;;5074884;28;20461;-66
2023/12/12 06:20:47;;;;;;;23.20;6.70;;;6.80;99.90;;;;;;5076582;28;20453;-65
2023/12/12 06:23:16;;;;;;;18.70;6.70;;;6.80;99.90;;;;;;5077485;28;20461;-65
2023/12/12 06:25:43;;;;;;;20.00;8.60;;;6.80;99.90;;;;;;5079386;28;20464;-65
2023/12/12 06:28:10;;;;;;;21.90;9.40;;;6.90;99.90;;;;;;5080101;28;20454;-66
2023/12/12 06:30:38;;;;;;;24.00;8.50;;;6.80;99.90;;;;;;5079723;28;20467;-65
2023/12/12 06:33:05;;;;;;;25.93;9.67;;;6.90;99.90;;;;;;5079204;28;20523;-65
2023/12/12 06:35:32;;;;;;;17.83;6.53;;;6.90;99.90;;;;;;5077909;28;20946;-66
2023/12/12 06:38:03;;;;;;;22.60;8.10;;;6.80;99.90;;;;;;5077630;28;20463;-66
2023/12/12 06:40:32;;;;;;;14.57;6.83;;;6.80;99.90;;;;;;5077608;28;20507;-65
2023/12/12 06:42:59;;;;;;;20.80;7.47;;;6.80;99.90;;;;;;5077784;28;20464;-66
2023/12/12 06:45:27;;;;;;;22.63;7.10;;;6.70;99.90;;;;;;5077787;28;20450;-66
2023/12/12 06:47:54;;;;;;;18.17;7.40;;;6.70;99.90;;;;;;5077624;28;20807;-66
2023/12/12 06:50:22;;;;;;;14.13;6.00;;;6.60;99.90;;;;;;5079392;28;20446;-66
2023/12/12 06:52:49;;;;;;;17.80;6.73;;;6.70;99.90;;;;;;5078753;28;20556;-65
2023/12/12 06:55:17;;;;;;;16.37;5.83;;;6.80;99.90;;;;;;5078225;28;20477;-66
2023/12/12 06:57:45;;;;;;;25.87;11.20;;;6.90;99.90;;;;;;5078909;28;20461;-65
2023/12/12 07:00:14;;;;;;;23.13;8.77;;;6.90;99.90;;;;;;5078523;28;20442;-65
2023/12/12 07:02:41;;;;;;;23.17;7.87;;;7.00;99.90;;;;;;5078391;28;20500;-64
2023/12/12 07:05:09;;;;;;;19.07;9.10;;;7.10;99.90;;;;;;5078466;28;20536;-65
2023/12/12 07:07:36;;;;;;;18.87;8.40;;;7.10;99.90;;;;;;5078517;28;20495;-66
2023/12/12 07:10:06;;;;;;;19.67;9.00;;;7.20;99.90;;;;;;5078850;28;20771;-65
2023/12/12 07:12:33;;;;;;;27.70;13.27;;;7.30;99.90;;;;;;5078612;28;20959;-65
2023/12/12 07:15:02;;;;;;;25.23;9.20;;;7.30;99.90;;;;;;5078367;28;20495;-64
2023/12/12 07:17:29;;;;;;;23.60;8.97;;;7.30;99.90;;;;;;5077917;28;20479;-66
2023/12/12 07:19:56;;;;;;;16.50;7.00;;;7.40;99.90;;;;;;5078413;28;20944;-65
2023/12/12 07:22:23;;;;;;;29.47;7.60;;;7.40;99.90;;;;;;5076594;28;20503;-65
2023/12/12 07:24:51;;;;;;;18.03;6.10;;;7.40;99.90;;;;;;5078538;28;20880;-65
2023/12/12 07:27:18;;;;;;;13.97;6.17;;;7.40;99.90;;;;;;5078210;28;20511;-65
2023/12/12 07:29:45;;;;;;;17.20;6.30;;;7.40;99.90;;;;;;5078153;28;20548;-64
2023/12/12 07:32:14;;;;;;;20.57;6.20;;;7.40;99.90;;;;;;5077669;28;20936;-64
2023/12/12 07:34:41;;;;;;;19.20;7.13;;;7.40;99.90;;;;;;5076917;28;20476;-65
2023/12/12 07:37:09;;;;;;;21.73;6.50;;;7.50;99.90;;;;;;5077936;28;20457;-64
2023/12/12 07:39:36;;;;;;;17.60;6.80;;;7.50;99.90;;;;;;5078219;28;20461;-65
2023/12/12 07:42:03;;;;;;;31.20;7.20;;;7.50;99.90;;;;;;5077851;28;20544;-64
2023/12/12 07:44:30;;;;;;;18.37;6.20;;;7.50;99.90;;;;;;5078233;28;20453;-65
2023/12/12 07:47:01;;;;;;;15.77;5.83;;;7.60;99.90;;;;;;5077080;28;20449;-64
2023/12/12 07:49:29;;;;;;;16.83;6.17;;;7.60;99.90;;;;;;5078100;28;20761;-65
2023/12/12 07:51:57;;;;;;;20.47;5.57;;;7.50;99.90;;;;;;5078120;28;20504;-65
2023/12/12 07:54:24;;;;;;;17.97;5.40;;;7.60;99.90;;;;;;5077931;28;20450;-65
2023/12/12 07:56:53;;;;;;;15.60;5.67;;;7.60;99.90;;;;;;5078040;28;20482;-65
2023/12/12 07:59:20;;;;;;;15.70;8.07;;;7.60;99.90;;;;;;5074948;28;20449;-65
2023/12/12 08:01:47;;;;;;;17.57;5.63;;;7.60;99.90;;;;;;5077768;28;20453;-64
2023/12/12 08:04:15;;;;;;;17.23;6.30;;;7.60;99.90;;;;;;5077467;28;20595;-64
2023/12/12 08:06:43;;;;;;;17.33;5.77;;;7.60;99.90;;;;;;5075229;28;20544;-65
2023/12/12 08:09:11;;;;;;;17.63;5.90;;;7.60;99.90;;;;;;5077020;28;20478;-65
2023/12/12 08:11:38;;;;;;;13.93;5.97;;;7.60;99.90;;;;;;5077180;28;20438;-65
2023/12/12 08:14:05;;;;;;;17.90;5.40;;;7.60;99.90;;;;;;5077203;28;20798;-65
2023/12/12 08:16:32;;;;;;;15.13;4.70;;;7.60;99.90;;;;;;5077414;28;20524;-65
2023/12/12 08:19:00;;;;;;;16.90;5.80;;;7.60;99.90;;;;;;5077355;28;20433;-64
2023/12/12 08:21:28;;;;;;;19.30;5.70;;;7.60;99.90;;;;;;5076766;28;20567;-64
2023/12/12 08:23:56;;;;;;;20.90;5.33;;;7.70;99.90;;;;;;5077138;28;20544;-64
2023/12/12 08:26:24;;;;;;;17.57;6.17;;;7.70;99.90;;;;;;5077256;28;20449;-65
2023/12/12 08:28:51;;;;;;;16.87;5.80;;;7.70;99.90;;;;;;5077141;28;20454;-64
2023/12/12 08:31:18;;;;;;;19.13;6.40;;;7.70;99.90;;;;;;5077151;28;20819;-64
2023/12/12 08:33:45;;;;;;;16.40;5.80;;;7.70;99.90;;;;;;5076799;28;20454;-64
2023/12/12 08:36:12;;;;;;;15.40;6.00;;;7.80;99.90;;;;;;5077064;28;20550;-64
2023/12/12 08:38:40;;;;;;;17.73;6.67;;;7.70;99.90;;;;;;5076002;28;20467;-64
2023/12/12 08:41:11;;;;;;;15.20;5.97;;;7.80;99.90;;;;;;5076076;28;20537;-64
2023/12/12 08:43:41;;;;;;;13.37;6.00;;;7.80;99.90;;;;;;5075907;28;20472;-64
2023/12/12 08:46:08;;;;;;;18.57;6.03;;;7.70;99.90;;;;;;5075519;28;20447;-64
2023/12/12 08:48:35;;;;;;;15.30;5.80;;;7.70;99.90;;;;;;5075734;28;20454;-64
2023/12/12 08:51:02;;;;;;;17.23;5.10;;;7.70;99.90;;;;;;5076019;28;20453;-65
2023/12/12 08:53:30;;;;;;;18.40;5.90;;;7.80;99.90;;;;;;5075997;28;20503;-65
2023/12/12 08:55:57;;;;;;;17.47;5.93;;;7.90;99.90;;;;;;5076470;28;20926;-64
2023/12/12 08:58:26;;;;;;;14.40;5.70;;;8.00;99.90;;;;;;5076567;28;20879;-64
2023/12/12 09:00:54;;;;;;;15.93;6.20;;;8.00;99.90;;;;;;5074388;28;20461;-65
2023/12/12 09:03:21;;;;;;;15.83;5.23;;;8.10;99.90;;;;;;5076448;28;20460;-64
2023/12/12 09:05:49;;;;;;;15.67;5.57;;;8.10;99.90;;;;;;5076005;28;20428;-64
2023/12/12 09:08:16;;;;;;;18.00;5.20;;;8.20;99.90;;;;;;5074015;28;20847;-64
2023/12/12 09:10:43;;;;;;;18.73;5.93;;;8.20;99.90;;;;;;5076568;28;20458;-64
2023/12/12 09:13:11;;;;;;;14.17;5.27;;;8.20;99.90;;;;;;5074783;28;20560;-64
2023/12/12 09:15:39;;;;;;;18.33;5.73;;;8.30;99.90;;;;;;5075505;28;20578;-65
2023/12/12 09:18:06;;;;;;;16.73;5.20;;;8.30;99.90;;;;;;5075010;28;20540;-64
2023/12/12 09:20:33;;;;;;;20.47;5.97;;;8.30;99.90;;;;;;5076530;28;20453;-64
2023/12/12 09:23:01;;;;;;;15.83;5.20;;;8.40;99.90;;;;;;5074992;28;20462;-64
2023/12/12 09:25:28;;;;;;;18.60;5.03;;;8.40;99.90;;;;;;5074151;28;20432;-64
2023/12/12 09:27:56;;;;;;;21.10;5.10;;;8.50;99.90;;;;;;5074912;28;20542;-64
2023/12/12 09:30:23;;;;;;;10.07;4.30;;;8.50;99.90;;;;;;5075023;28;20453;-64
2023/12/12 09:32:51;;;;;;;11.00;5.17;;;8.60;99.90;;;;;;5074815;28;20436;-64
2023/12/12 09:35:19;;;;;;;15.33;5.53;;;8.60;99.90;;;;;;5074245;28;20753;-64
2023/12/12 09:37:46;;;;;;;17.10;4.20;;;8.60;99.90;;;;;;5075643;28;20489;-63
2023/12/12 09:40:13;;;;;;;13.93;4.97;;;8.70;99.90;;;;;;5075157;28;20464;-64
2023/12/12 09:42:41;;;;;;;12.07;4.70;;;8.70;99.90;;;;;;5075499;28;20484;-63
2023/12/12 09:45:14;;;;;;;11.50;4.07;;;8.80;99.90;;;;;;5077004;28;20483;-62
2023/12/12 09:47:43;;;;;;;16.87;4.27;;;8.90;99.90;;;;;;5077085;28;20485;-63
2023/12/12 09:50:12;;;;;;;12.80;4.67;;;9.10;99.90;;;;;;5076355;28;20428;-64
2023/12/12 09:52:40;;;;;;;12.20;4.33;;;9.30;99.90;;;;;;5076182;28;20541;-63
2023/12/12 09:55:08;;;;;;;10.90;4.00;;;9.60;99.90;;;;;;5075829;28;20876;-63
2023/12/12 09:57:35;;;;;;;14.23;3.80;;;10.00;99.90;;;;;;5075094;28;20577;-63
2023/12/12 10:00:04;;;;;;;14.53;4.10;;;10.20;99.90;;;;;;5077814;28;20464;-63
2023/12/12 10:02:35;;;;;;;10.60;4.40;;;10.20;99.90;;;;;;5079809;28;20465;-62
2023/12/12 10:05:04;;;;;;;9.23;3.90;;;10.30;99.90;;;;;;5079574;28;20464;-63
2023/12/12 10:07:33;;;;;;;8.90;3.80;;;10.40;99.90;;;;;;5080045;28;20511;-63
2023/12/12 10:10:04;;;;;;;12.93;3.83;;;10.50;99.90;;;;;;5079205;28;20500;-64
2023/12/12 10:12:31;;;;;;;11.20;4.13;;;10.60;99.90;;;;;;5076850;28;20469;-63
2023/12/12 10:14:58;;;;;;;8.87;3.83;;;10.60;1.00;;;;;;5073267;28;20568;-63
2023/12/12 10:17:26;;;;;;;11.60;4.30;;;10.60;1.00;;;;;;5079860;28;20477;-62
2023/12/12 10:20:03;;;;;;;12.67;4.17;;;10.70;1.00;;;;;;5080057;28;20504;-63
2023/12/12 10:22:32;;;;;;;11.57;4.00;;;10.70;1.00;;;;;;5080039;28;20475;-63
2023/12/12 10:25:10;;;;;;;11.10;4.37;;;10.60;1.00;;;;;;5079168;28;20457;-63
2023/12/12 10:27:40;;;;;;;9.87;4.23;;;10.60;1.00;;;;;;5080016;28;20736;-62
2023/12/12 10:30:08;;;;;;;14.67;5.03;;;10.70;1.00;;;;;;5080038;28;20450;-63
2023/12/12 10:32:37;;;;;;;11.57;4.07;;;10.90;1.00;;;;;;5078796;28;20476;-63
2023/12/12 10:35:05;;;;;;;7.37;3.80;;;10.90;1.00;;;;;;5078960;28;20465;-63
2023/12/12 10:37:34;;;;;;;7.27;3.47;;;11.00;1.00;;;;;;5079986;28;20790;-62
2023/12/12 10:40:13;;;;;;;10.13;3.80;;;11.20;1.00;;;;;;5080099;28;20526;-63
2023/12/12 10:42:41;;;;;;;9.50;3.90;;;11.40;1.00;;;;;;5078816;28;20457;-62
2023/12/12 10:45:12;;;;;;;9.57;4.07;;;11.50;1.00;;;;;;5078646;28;20479;-62
2023/12/12 10:47:43;;;;;;;8.17;3.23;;;11.50;1.00;;;;;;5079104;28;20453;-62
2023/12/12 10:50:14;;;;;;;10.70;3.40;;;11.70;1.00;;;;;;5080109;28;20866;-62
2023/12/12 10:52:44;;;;;;;11.03;4.00;;;11.90;1.00;;;;;;5080111;28;20461;-62
2023/12/12 10:55:13;;;;;;;13.50;4.47;;;12.00;1.00;;;;;;5079489;28;20548;-62
2023/12/12 10:57:43;;;;;;;9.10;3.47;;;12.00;1.00;;;;;;5079519;28;20528;-62
2023/12/12 11:00:14;;;;;;;10.63;4.10;;;12.10;1.00;;;;;;5079647;28;20473;-62
2023/12/12 11:02:42;;;;;;;11.70;3.90;;;12.00;1.00;;;;;;5079721;28;20827;-62
2023/12/12 11:05:11;;;;;;;7.80;4.43;;;12.20;1.00;;;;;;5079674;28;20504;-63
2023/12/12 11:07:39;;;;;;;7.57;3.20;;;12.30;1.00;;;;;;5079305;28;20480;-62
2023/12/12 11:10:11;;;;;;;12.07;4.10;;;12.50;1.00;;;;;;5078172;28;20801;-63
2023/12/12 11:12:43;;;;;;;10.87;3.93;;;12.60;99.90;;;;;;5078970;28;20515;-62
2023/12/12 11:15:12;;;;;;;11.20;4.20;;;12.60;99.90;;;;;;5078966;28;20468;-63
2023/12/12 11:17:41;;;;;;;9.00;3.03;;;12.40;99.90;;;;;;5079025;28;20938;-62
2023/12/12 11:20:13;;;;;;;11.67;3.27;;;12.50;1.00;;;;;;5079412;28;20468;-62
2023/12/12 11:22:41;;;;;;;8.87;4.20;;;12.50;99.90;;;;;;5078159;28;20920;-63
2023/12/12 11:25:16;;;;;;;9.53;3.50;;;12.40;99.90;;;;;;5077350;28;20555;-63
2023/12/12 11:27:47;;;;;;;9.40;4.33;;;12.30;99.90;;;;;;5076705;28;20463;-63
2023/12/12 11:30:15;;;;;;;11.00;4.70;;;12.40;99.90;;;;;;5077478;28;20890;-63
2023/12/12 11:32:43;;;;;;;12.77;4.43;;;12.40;99.90;;;;;;5077448;28;20540;-62
2023/12/12 11:35:26;;;;;;;11.87;3.80;;;12.50;99.90;;;;;;5076754;28;20536;-62
2023/12/12 11:37:55;;;;;;;7.97;3.70;;;12.40;99.90;;;;;;5078069;28;20500;-62
2023/12/12 11:40:25;;;;;;;10.40;4.43;;;12.30;99.90;;;;;;5077765;28;20496;-62
2023/12/12 11:42:53;;;;;;;13.37;4.10;;;12.20;99.90;;;;;;5077649;28;20458;-63
2023/12/12 11:45:31;;;;;;;9.63;3.80;;;12.20;99.90;;;;;;5078530;28;20798;-62
2023/12/12 11:48:01;;;;;;;10.20;3.90;;;12.30;99.90;;;;;;5077058;28;20457;-62
2023/12/12 11:50:32;;;;;;;8.70;4.00;;;12.10;99.90;;;;;;5078246;28;20473;-64
2023/12/12 11:53:01;;;;;;;12.43;4.50;;;11.90;99.90;;;;;;5077690;28;20501;-62
2023/12/12 11:55:32;;;;;;;10.90;3.40;;;11.60;99.90;;;;;;5077808;28;20889;-62
2023/12/12 11:58:04;;;;;;;8.73;3.80;;;11.50;99.90;;;;;;5077037;28;20525;-63
2023/12/12 12:00:37;;;;;;;7.77;3.00;;;11.30;99.90;;;;;;5077955;28;20463;-62
2023/12/12 12:03:05;;;;;;;8.80;4.23;;;11.30;99.90;;;;;;5077298;28;20461;-62
2023/12/12 12:05:32;;;;;;;12.70;3.60;;;11.30;1.00;;;;;;5078329;28;20458;-63
2023/12/12 12:08:01;;;;;;;8.33;3.00;;;11.30;1.00;;;;;;5077862;28;20481;-62
2023/12/12 12:10:30;;;;;;;9.83;3.20;;;11.30;1.00;;;;;;5077211;28;20465;-62
2023/12/12 12:12:59;;;;;;;9.13;3.40;;;11.20;1.00;;;;;;5077604;28;20917;-62
2023/12/12 12:15:28;;;;;;;9.00;3.37;;;11.20;1.00;;;;;;5077845;28;20467;-62
2023/12/12 12:17:56;;;;;;;8.17;3.80;;;11.20;1.00;;;;;;5077949;28;20493;-62
2023/12/12 12:20:23;;;;;;;9.93;3.43;;;11.30;1.00;;;;;;5078121;28;21202;-62
2023/12/12 12:22:50;;;;;;;8.23;2.90;;;11.30;1.00;;;;;;5078056;28;20540;-62
2023/12/12 12:25:26;;;;;;;7.30;3.20;;;11.30;1.00;;;;;;5077827;28;20492;-62
2023/12/12 12:27:55;;;;;;;7.20;2.93;;;11.20;1.00;;;;;;5075893;28;20522;-62
2023/12/12 12:30:25;;;;;;;11.00;3.50;;;11.10;1.00;;;;;;5076144;28;20457;-62
2023/12/12 12:33:13;;;;;;;11.97;3.23;;;11.00;1.00;;;;;;5075994;28;20504;-62
2023/12/12 12:35:51;;;;;;;5.27;2.70;;;10.90;8.70;;;;;;5072315;28;20469;-62
2023/12/12 12:38:25;;;;;;;9.20;2.80;;;10.70;99.90;;;;;;5077732;28;20957;-62
2023/12/12 12:40:52;;;;;;;6.67;2.80;;;10.70;1.00;;;;;;5077722;28;20453;-62
2023/12/12 12:43:22;;;;;;;5.37;3.17;;;10.60;99.90;;;;;;5077278;28;20481;-61
2023/12/12 12:45:50;;;;;;;6.70;3.10;;;10.60;99.90;;;;;;5077432;28;20457;-62
2023/12/12 12:48:18;;;;;;;6.30;2.27;;;10.40;1.00;;;;;;5077442;28;20456;-62
2023/12/12 12:50:47;;;;;;;8.10;2.93;;;10.20;1.00;;;;;;5077629;28;20453;-63
2023/12/12 12:53:14;;;;;;;5.90;2.93;;;10.00;1.00;;;;;;5077082;28;20457;-63